createdAt,value
2023-04-26T00:01:35.433Z,5.20
2023-04-26T00:04:03.192Z,5.20
2023-04-26T00:06:30.477Z,5.40
2023-04-26T00:08:57.216Z,5.20
2023-04-26T00:11:23.826Z,5.20
2023-04-26T00:13:50.406Z,5.20
2023-04-26T00:16:18.271Z,5.20
2023-04-26T00:18:46.155Z,5.20
2023-04-26T00:21:13.034Z,5.10
2023-04-26T00:23:39.837Z,5.10
2023-04-26T00:26:06.468Z,5.00
2023-04-26T00:28:33.130Z,5.00
2023-04-26T00:30:59.805Z,5.10
2023-04-26T00:33:26.455Z,5.10
2023-04-26T00:35:53.082Z,5.00
2023-04-26T00:38:19.726Z,5.10
2023-04-26T00:40:46.367Z,5.10
2023-04-26T00:43:13.072Z,5.10
2023-04-26T00:45:40.005Z,5.20
2023-04-26T00:48:06.706Z,5.10
2023-04-26T00:50:33.946Z,5.10
2023-04-26T00:53:02.682Z,5.00
2023-04-26T00:55:29.563Z,5.00
2023-04-26T00:57:56.281Z,5.00
2023-04-26T01:00:22.950Z,5.10
2023-04-26T01:02:49.920Z,5.10
2023-04-26T01:05:17.446Z,5.10
2023-04-26T01:07:44.874Z,5.10
2023-04-26T01:10:11.914Z,5.10
2023-04-26T01:12:39.164Z,5.10
2023-04-26T01:15:06.580Z,5.00
2023-04-26T01:17:33.734Z,4.90
2023-04-26T01:20:00.664Z,4.90
2023-04-26T01:22:28.327Z,4.80
2023-04-26T01:24:56.327Z,4.80
2023-04-26T01:27:23.012Z,4.70
2023-04-26T01:29:49.773Z,4.70
2023-04-26T01:32:16.544Z,4.60
2023-04-26T01:34:43.191Z,4.60
2023-04-26T01:37:09.948Z,4.60
2023-04-26T01:39:36.523Z,4.70
2023-04-26T01:42:04.574Z,4.80
2023-04-26T01:44:31.386Z,4.90
2023-04-26T01:46:58.166Z,4.90
2023-04-26T01:49:24.765Z,4.90
2023-04-26T01:51:51.713Z,4.80
2023-04-26T01:54:18.253Z,4.90
2023-04-26T01:56:44.844Z,4.90
2023-04-26T01:59:11.890Z,4.90
2023-04-26T02:01:38.550Z,4.70
2023-04-26T02:04:06.241Z,4.70
2023-04-26T02:06:32.997Z,4.50
2023-04-26T02:08:59.523Z,4.50
2023-04-26T02:11:27.008Z,4.50
2023-04-26T02:13:54.258Z,4.60
2023-04-26T02:16:21.244Z,4.50
2023-04-26T02:18:49.839Z,4.50
2023-04-26T02:21:18.528Z,4.60
2023-04-26T02:23:45.644Z,4.50
2023-04-26T02:26:12.643Z,4.40
2023-04-26T02:28:39.261Z,4.40
2023-04-26T02:31:06.225Z,4.40
2023-04-26T02:33:33.024Z,4.40
2023-04-26T02:36:02.195Z,4.30
2023-04-26T02:38:28.789Z,4.30
2023-04-26T02:41:03.130Z,4.30
2023-04-26T02:43:30.168Z,4.30
2023-04-26T02:45:58.940Z,4.30
2023-04-26T02:48:26.047Z,4.30
2023-04-26T02:50:53.153Z,4.30
2023-04-26T02:53:19.723Z,4.30
2023-04-26T02:55:46.289Z,4.30
2023-04-26T02:58:13.150Z,4.30
2023-04-26T03:00:44.937Z,4.40
2023-04-26T03:03:11.661Z,4.40
2023-04-26T03:05:38.445Z,4.30
2023-04-26T03:08:05.998Z,4.50
2023-04-26T03:10:32.550Z,4.40
2023-04-26T03:12:59.083Z,4.50
2023-04-26T03:15:25.667Z,4.60
2023-04-26T03:17:52.374Z,4.60
2023-04-26T03:20:19.363Z,4.60
2023-04-26T03:22:46.178Z,4.60
2023-04-26T03:25:13.136Z,4.60
2023-04-26T03:27:39.718Z,4.60
2023-04-26T03:30:07.114Z,4.60
2023-04-26T03:32:33.720Z,4.70
2023-04-26T03:35:00.756Z,4.70
2023-04-26T03:37:27.326Z,4.70
2023-04-26T03:39:54.209Z,4.60
2023-04-26T03:42:20.999Z,4.60
2023-04-26T03:44:47.620Z,4.60
2023-04-26T03:47:15.779Z,4.50
2023-04-26T03:49:42.719Z,4.50
2023-04-26T03:52:09.379Z,4.40
2023-04-26T03:54:36.246Z,4.40
2023-04-26T03:57:03.139Z,4.40
2023-04-26T03:59:30.186Z,4.30
2023-04-26T04:01:56.752Z,4.30
2023-04-26T04:04:24.328Z,4.30
2023-04-26T04:06:51.560Z,4.30
2023-04-26T04:09:18.135Z,4.40
2023-04-26T04:11:47.396Z,4.50
2023-04-26T04:14:14.238Z,4.60
2023-04-26T04:16:40.780Z,4.50
2023-04-26T04:19:07.498Z,4.50
2023-04-26T04:21:34.260Z,4.30
2023-04-26T04:24:02.274Z,4.40
2023-04-26T04:26:28.868Z,4.40
2023-04-26T04:28:57.260Z,4.40
2023-04-26T04:31:24.744Z,4.50
2023-04-26T04:33:51.459Z,4.50
2023-04-26T04:36:18.051Z,4.50
2023-04-26T04:38:45.185Z,4.50
2023-04-26T04:41:12.181Z,4.50
2023-04-26T04:43:38.806Z,4.50
2023-04-26T04:46:07.042Z,4.40
2023-04-26T04:48:33.905Z,4.40
2023-04-26T04:51:01.880Z,4.40
2023-04-26T04:53:28.895Z,4.60
2023-04-26T04:55:57.888Z,4.70
2023-04-26T04:58:25.759Z,4.70
2023-04-26T05:00:55.237Z,4.80
2023-04-26T05:03:22.717Z,4.70
2023-04-26T05:05:49.535Z,4.70
2023-04-26T05:08:16.698Z,4.70
2023-04-26T05:10:43.269Z,4.70
2023-04-26T05:13:09.807Z,4.80
2023-04-26T05:15:36.649Z,4.80
2023-04-26T05:18:03.406Z,4.80
2023-04-26T05:20:32.239Z,4.80
2023-04-26T05:22:58.768Z,4.70
2023-04-26T05:25:25.435Z,4.80
2023-04-26T05:27:53.979Z,4.80
2023-04-26T05:30:20.978Z,4.80
2023-04-26T05:32:47.675Z,4.80
2023-04-26T05:35:15.682Z,4.90
2023-04-26T05:37:42.266Z,4.80
2023-04-26T05:40:11.668Z,4.90
2023-04-26T05:42:38.345Z,4.90
2023-04-26T05:45:05.735Z,4.80
2023-04-26T05:47:33.974Z,4.90
2023-04-26T05:50:00.592Z,4.80
2023-04-26T05:52:28.652Z,4.80
2023-04-26T05:54:55.178Z,4.90
2023-04-26T05:57:21.856Z,5.00
2023-04-26T05:59:50.014Z,5.10
2023-04-26T06:02:16.781Z,5.10
2023-04-26T06:04:46.352Z,5.10
2023-04-26T06:07:13.241Z,5.00
2023-04-26T06:09:39.785Z,5.00
2023-04-26T06:12:06.896Z,5.00
2023-04-26T06:14:33.513Z,5.00
2023-04-26T06:17:02.886Z,5.10
2023-04-26T06:19:30.769Z,5.20
2023-04-26T06:21:57.482Z,5.30
2023-04-26T06:24:27.034Z,5.40
2023-04-26T06:26:53.809Z,5.50
2023-04-26T06:29:21.356Z,5.50
2023-04-26T06:31:47.976Z,5.60
2023-04-26T06:34:14.615Z,5.60
2023-04-26T06:36:41.195Z,5.70
2023-04-26T06:39:08.008Z,5.70
2023-04-26T06:41:36.316Z,5.70
2023-04-26T06:44:02.954Z,5.90
2023-04-26T06:46:29.556Z,6.00
2023-04-26T06:48:58.214Z,6.10
2023-04-26T06:51:24.931Z,6.20
2023-04-26T06:53:52.600Z,6.30
2023-04-26T06:56:19.448Z,6.30
2023-04-26T06:59:05.017Z,6.30
2023-04-26T07:01:35.468Z,6.50
2023-04-26T07:04:05.595Z,6.50
2023-04-26T07:06:32.461Z,6.50
2023-04-26T07:09:01.802Z,6.60
2023-04-26T07:11:28.731Z,6.70
2023-04-26T07:13:55.781Z,6.90
2023-04-26T07:16:22.587Z,7.10
2023-04-26T07:18:49.911Z,7.10
2023-04-26T07:21:16.526Z,7.10
2023-04-26T07:23:44.361Z,7.20
2023-04-26T07:26:11.699Z,7.20
2023-04-26T07:28:38.331Z,7.30
2023-04-26T07:31:07.081Z,7.50
2023-04-26T07:33:35.926Z,7.60
2023-04-26T07:36:02.880Z,7.60
2023-04-26T07:38:29.514Z,7.70
2023-04-26T07:40:57.898Z,7.80
2023-04-26T07:43:25.011Z,7.50
2023-04-26T07:45:53.612Z,7.50
2023-04-26T07:48:20.234Z,7.30
2023-04-26T07:50:48.592Z,6.90
2023-04-26T07:53:15.132Z,6.70
2023-04-26T07:55:43.542Z,6.50
2023-04-26T07:58:14.437Z,6.40
2023-04-26T08:00:41.627Z,6.50
2023-04-26T08:03:09.446Z,6.40
2023-04-26T08:05:36.402Z,6.50
2023-04-26T08:08:04.794Z,6.60
2023-04-26T08:10:31.612Z,6.60
2023-04-26T08:12:58.217Z,6.80
2023-04-26T08:15:26.579Z,6.70
2023-04-26T08:17:53.459Z,6.80
2023-04-26T08:20:20.809Z,7.00
2023-04-26T08:22:47.539Z,7.00
2023-04-26T08:25:14.954Z,7.00
2023-04-26T08:27:43.152Z,7.10
2023-04-26T08:30:11.566Z,7.20
2023-04-26T08:32:38.385Z,7.50
2023-04-26T08:35:07.405Z,7.70
2023-04-26T08:37:34.850Z,7.80
2023-04-26T08:40:01.507Z,8.10
2023-04-26T08:42:28.820Z,8.30
2023-04-26T08:44:56.282Z,8.20
2023-04-26T08:47:47.048Z,8.20
2023-04-26T08:50:15.684Z,8.30
2023-04-26T08:52:47.201Z,8.00
2023-04-26T08:55:16.483Z,7.80
2023-04-26T08:57:48.041Z,7.80
2023-04-26T09:00:16.133Z,7.80
2023-04-26T09:02:52.133Z,7.80
2023-04-26T09:05:24.008Z,7.70
2023-04-26T09:07:51.188Z,7.60
2023-04-26T09:10:22.711Z,7.60
2023-04-26T09:12:53.495Z,7.50
2023-04-26T09:15:24.516Z,7.50
2023-04-26T09:17:52.025Z,7.60
2023-04-26T09:20:28.080Z,7.70
2023-04-26T09:23:06.487Z,7.90
2023-04-26T09:25:33.587Z,7.90
2023-04-26T09:28:01.119Z,8.30
2023-04-26T09:30:28.941Z,8.60
2023-04-26T09:33:06.416Z,8.70
2023-04-26T09:35:38.608Z,8.70
2023-04-26T09:38:12.184Z,8.60
2023-04-26T09:40:42.218Z,8.60
2023-04-26T09:43:11.928Z,8.80
2023-04-26T09:45:53.634Z,9.10
2023-04-26T09:48:36.240Z,9.30
2023-04-26T09:51:02.855Z,9.10
2023-04-26T09:53:46.310Z,9.00
2023-04-26T09:56:21.930Z,9.20
2023-04-26T09:58:58.683Z,9.30
2023-04-26T10:01:26.816Z,9.30
2023-04-26T10:03:54.729Z,9.00
2023-04-26T10:06:22.856Z,8.80
2023-04-26T10:08:49.458Z,9.00
2023-04-26T10:11:16.518Z,9.10
2023-04-26T10:13:44.662Z,9.10
2023-04-26T10:16:11.610Z,9.10
2023-04-26T10:18:38.351Z,9.20
2023-04-26T10:21:16.078Z,9.20
2023-04-26T10:23:46.777Z,9.40
2023-04-26T10:26:58.920Z,9.00
2023-04-26T10:29:46.119Z,8.90
2023-04-26T10:32:17.293Z,8.80
2023-04-26T10:34:44.420Z,8.70
2023-04-26T10:37:15.697Z,8.70
2023-04-26T10:39:43.873Z,8.70
2023-04-26T10:42:27.565Z,8.90
2023-04-26T10:45:20.584Z,8.80
2023-04-26T10:47:47.520Z,8.70
2023-04-26T10:50:14.175Z,8.40
2023-04-26T10:53:05.653Z,8.50
2023-04-26T10:55:38.947Z,8.50
2023-04-26T10:58:29.108Z,8.50
2023-04-26T11:01:11.444Z,8.70
2023-04-26T11:03:38.636Z,8.70
2023-04-26T11:06:09.981Z,8.70
2023-04-26T11:08:38.284Z,8.80
2023-04-26T11:11:04.872Z,8.80
2023-04-26T11:13:41.851Z,8.80
2023-04-26T11:16:13.613Z,9.10
2023-04-26T11:18:45.271Z,9.10
2023-04-26T11:21:15.202Z,9.20
2023-04-26T11:23:41.761Z,9.10
2023-04-26T11:26:09.390Z,9.20
2023-04-26T11:28:38.219Z,9.60
2023-04-26T11:31:06.396Z,9.40
2023-04-26T11:33:35.998Z,9.40
2023-04-26T11:36:03.370Z,9.70
2023-04-26T11:38:30.287Z,9.70
2023-04-26T11:40:58.738Z,9.30
2023-04-26T11:43:39.053Z,9.40
2023-04-26T11:46:07.420Z,9.50
2023-04-26T11:48:36.695Z,9.40
2023-04-26T11:51:06.783Z,9.30
2023-04-26T11:53:40.670Z,9.40
2023-04-26T11:56:18.068Z,9.40
2023-04-26T11:58:50.663Z,9.60
2023-04-26T12:01:36.575Z,9.70
2023-04-26T12:04:11.674Z,9.80
2023-04-26T12:06:45.908Z,9.80
2023-04-26T12:09:13.524Z,10.00
2023-04-26T12:11:40.497Z,10.10
2023-04-26T12:14:09.760Z,10.20
2023-04-26T12:16:37.334Z,10.20
2023-04-26T12:19:10.282Z,10.20
2023-04-26T12:21:44.080Z,10.20
2023-04-26T12:24:27.051Z,10.10
2023-04-26T12:26:53.646Z,10.30
2023-04-26T12:29:21.444Z,10.10
2023-04-26T12:31:52.338Z,10.00
2023-04-26T12:34:18.968Z,10.30
2023-04-26T12:36:45.722Z,10.50
2023-04-26T12:39:13.546Z,10.60
2023-04-26T12:41:44.350Z,10.10
2023-04-26T12:44:13.796Z,9.80
2023-04-26T12:46:43.167Z,9.60
2023-04-26T12:49:09.936Z,9.60
2023-04-26T12:51:37.643Z,9.90
2023-04-26T12:54:06.624Z,10.20
2023-04-26T12:56:34.966Z,10.10
2023-04-26T12:59:02.894Z,9.80
2023-04-26T13:01:30.638Z,9.70
2023-04-26T13:03:59.955Z,9.90
2023-04-26T13:06:28.660Z,10.00
2023-04-26T13:08:55.368Z,9.90
2023-04-26T13:11:22.090Z,10.00
2023-04-26T13:13:49.463Z,9.90
2023-04-26T13:16:16.765Z,10.20
2023-04-26T13:18:43.377Z,10.40
2023-04-26T13:21:09.968Z,10.30
2023-04-26T13:23:36.722Z,9.90
2023-04-26T13:26:03.325Z,9.50
2023-04-26T13:28:29.950Z,9.90
2023-04-26T13:30:56.592Z,10.30
2023-04-26T13:33:23.722Z,10.50
2023-04-26T13:35:50.499Z,10.50
2023-04-26T13:38:17.485Z,10.60
2023-04-26T13:40:44.807Z,10.40
2023-04-26T13:43:14.836Z,10.10
2023-04-26T13:45:45.609Z,10.30
2023-04-26T13:48:13.171Z,10.40
2023-04-26T13:50:40.184Z,10.70
2023-04-26T13:53:07.153Z,10.50
2023-04-26T13:55:33.814Z,10.30
2023-04-26T13:58:00.997Z,10.10
2023-04-26T14:00:27.709Z,9.80
2023-04-26T14:02:54.658Z,9.80
2023-04-26T14:05:23.743Z,9.70
2023-04-26T14:07:51.834Z,9.70
2023-04-26T14:10:23.502Z,9.70
2023-04-26T14:12:54.664Z,9.90
2023-04-26T14:15:21.320Z,9.80
2023-04-26T14:17:48.053Z,9.50
2023-04-26T14:20:15.226Z,9.60
2023-04-26T14:22:41.770Z,10.00
2023-04-26T14:25:08.833Z,10.50
2023-04-26T14:27:40.242Z,10.60
2023-04-26T14:30:07.658Z,10.20
2023-04-26T14:32:36.174Z,9.60
2023-04-26T14:35:02.782Z,9.80
2023-04-26T14:37:29.452Z,9.70
2023-04-26T14:39:56.089Z,9.70
2023-04-26T14:42:24.905Z,9.90
2023-04-26T14:44:51.549Z,9.80
2023-04-26T14:47:18.172Z,9.90
2023-04-26T14:49:44.760Z,10.00
2023-04-26T14:52:11.294Z,9.60
2023-04-26T14:54:42.414Z,9.60
2023-04-26T14:57:10.246Z,9.80
2023-04-26T14:59:37.203Z,9.70
2023-04-26T15:02:04.864Z,10.10
2023-04-26T15:04:31.765Z,10.20
2023-04-26T15:06:58.629Z,10.30
2023-04-26T15:09:25.227Z,10.40
2023-04-26T15:11:51.812Z,10.30
2023-04-26T15:14:18.346Z,10.20
2023-04-26T15:16:46.643Z,10.10
2023-04-26T15:19:13.260Z,10.50
2023-04-26T15:21:39.888Z,10.70
2023-04-26T15:24:07.619Z,10.90
2023-04-26T15:26:34.422Z,10.50
2023-04-26T15:29:01.633Z,10.10
2023-04-26T15:31:28.607Z,9.90
2023-04-26T15:33:57.892Z,9.80
2023-04-26T15:36:24.503Z,9.80
2023-04-26T15:38:51.117Z,9.70
2023-04-26T15:41:17.699Z,9.70
2023-04-26T15:43:44.349Z,9.90
2023-04-26T15:46:14.795Z,10.10
2023-04-26T15:48:41.369Z,10.00
2023-04-26T15:51:08.006Z,9.80
2023-04-26T15:53:37.593Z,9.50
2023-04-26T15:56:16.049Z,9.30
2023-04-26T15:58:45.052Z,9.30
2023-04-26T16:01:12.324Z,9.20
2023-04-26T16:03:41.866Z,9.20
2023-04-26T16:06:10.031Z,9.10
2023-04-26T16:08:40.753Z,9.20
2023-04-26T16:11:07.804Z,9.30
2023-04-26T16:13:35.324Z,9.40
2023-04-26T16:16:04.213Z,9.70
2023-04-26T16:18:31.166Z,9.60
2023-04-26T16:21:09.342Z,9.40
2023-04-26T16:23:36.647Z,9.40
2023-04-26T16:26:03.924Z,9.30
2023-04-26T16:28:30.581Z,9.30
2023-04-26T16:30:57.457Z,9.20
2023-04-26T16:33:26.875Z,9.20
2023-04-26T16:35:57.202Z,9.10
2023-04-26T16:38:24.074Z,8.90
2023-04-26T16:40:57.923Z,8.90
2023-04-26T16:43:26.906Z,8.90
2023-04-26T16:46:05.108Z,10.10
2023-04-26T16:48:32.758Z,9.30
2023-04-26T16:51:00.618Z,9.20
2023-04-26T16:53:27.380Z,9.30
2023-04-26T16:55:55.983Z,9.40
2023-04-26T16:58:23.060Z,9.70
2023-04-26T17:00:49.736Z,10.20
2023-04-26T17:03:17.170Z,10.80
2023-04-26T17:05:49.585Z,10.60
2023-04-26T17:08:17.499Z,10.70
2023-04-26T17:10:46.157Z,10.60
2023-04-26T17:13:13.248Z,10.50
2023-04-26T17:15:41.347Z,10.60
2023-04-26T17:18:09.520Z,10.70
2023-04-26T17:20:36.502Z,10.70
2023-04-26T17:23:04.241Z,10.90
2023-04-26T17:25:31.175Z,10.10
2023-04-26T17:27:58.418Z,9.90
2023-04-26T17:30:25.167Z,9.60
2023-04-26T17:32:52.056Z,9.50
2023-04-26T17:35:19.983Z,9.70
2023-04-26T17:37:49.690Z,9.50
2023-04-26T17:40:17.749Z,9.60
2023-04-26T17:42:44.679Z,9.50
2023-04-26T17:45:14.669Z,9.40
2023-04-26T17:47:42.742Z,9.10
2023-04-26T17:50:09.856Z,9.10
2023-04-26T17:52:37.418Z,9.00
2023-04-26T17:55:05.898Z,9.00
2023-04-26T17:57:32.580Z,8.90
2023-04-26T17:59:59.437Z,8.90
2023-04-26T18:02:26.347Z,8.80
2023-04-26T18:04:55.266Z,8.90
2023-04-26T18:07:22.158Z,9.20
2023-04-26T18:09:48.832Z,9.40
2023-04-26T18:12:18.539Z,9.50
2023-04-26T18:14:45.291Z,9.40
2023-04-26T18:17:13.016Z,9.50
2023-04-26T18:19:39.953Z,9.30
2023-04-26T18:22:07.635Z,9.10
2023-04-26T18:24:35.533Z,9.00
2023-04-26T18:27:02.729Z,8.90
2023-04-26T18:29:29.787Z,9.20
2023-04-26T18:31:56.667Z,8.40
2023-04-26T18:34:25.701Z,8.30
2023-04-26T18:36:52.326Z,8.30
2023-04-26T18:39:19.097Z,8.30
2023-04-26T18:41:45.848Z,8.10
2023-04-26T18:44:15.530Z,7.80
2023-04-26T18:46:44.603Z,7.80
2023-04-26T18:49:14.166Z,7.80
2023-04-26T18:51:40.850Z,7.80
2023-04-26T18:54:07.432Z,7.80
2023-04-26T18:56:34.022Z,7.80
2023-04-26T18:59:02.065Z,7.80
2023-04-26T19:01:28.756Z,7.90
2023-04-26T19:03:56.431Z,7.80
2023-04-26T19:06:23.170Z,7.80
2023-04-26T19:08:49.751Z,7.80
2023-04-26T19:11:16.560Z,7.70
2023-04-26T19:13:43.360Z,7.50
2023-04-26T19:16:12.411Z,7.40
2023-04-26T19:18:44.171Z,7.40
2023-04-26T19:21:11.113Z,7.40
2023-04-26T19:23:39.858Z,7.30
2023-04-26T19:26:12.212Z,7.30
2023-04-26T19:28:39.124Z,7.30
2023-04-26T19:31:06.686Z,7.20
2023-04-26T19:33:33.405Z,7.10
2023-04-26T19:35:59.989Z,7.00
2023-04-26T19:38:26.627Z,7.00
2023-04-26T19:40:53.314Z,7.00
2023-04-26T19:43:21.549Z,6.90
2023-04-26T19:45:50.118Z,6.80
2023-04-26T19:48:16.856Z,6.70
2023-04-26T19:50:45.666Z,6.80
2023-04-26T19:53:13.788Z,6.80
2023-04-26T19:55:41.283Z,6.80
2023-04-26T19:58:08.896Z,6.70
2023-04-26T20:00:35.970Z,6.70
2023-04-26T20:03:02.994Z,6.70
2023-04-26T20:05:29.969Z,6.60
2023-04-26T20:07:58.084Z,6.60
2023-04-26T20:10:25.008Z,6.60
2023-04-26T20:12:51.968Z,6.60
2023-04-26T20:15:21.140Z,6.50
2023-04-26T20:17:49.722Z,6.60
2023-04-26T20:20:16.496Z,6.60
2023-04-26T20:22:43.255Z,6.60
2023-04-26T20:25:10.297Z,6.50
2023-04-26T20:27:36.970Z,6.50
2023-04-26T20:30:05.687Z,6.60
2023-04-26T20:32:32.653Z,6.60
2023-04-26T20:34:59.450Z,6.70
2023-04-26T20:37:26.189Z,6.80
2023-04-26T20:39:52.951Z,6.80
2023-04-26T20:42:19.745Z,6.80
2023-04-26T20:44:46.371Z,6.80
2023-04-26T20:47:13.155Z,6.40
2023-04-26T20:49:39.836Z,6.20
2023-04-26T20:52:06.544Z,6.10
2023-04-26T20:54:34.226Z,6.00
2023-04-26T20:57:01.745Z,6.00
2023-04-26T20:59:28.407Z,6.00
2023-04-26T21:01:55.146Z,6.20
2023-04-26T21:04:22.124Z,6.20
2023-04-26T21:06:49.009Z,6.20
2023-04-26T21:09:16.135Z,6.20
2023-04-26T21:11:42.735Z,6.30
2023-04-26T21:14:09.443Z,6.30
2023-04-26T21:16:36.122Z,6.40
2023-04-26T21:19:03.397Z,6.40
2023-04-26T21:21:30.193Z,6.30
2023-04-26T21:23:56.734Z,6.10
2023-04-26T21:26:23.341Z,5.90
2023-04-26T21:28:49.938Z,5.70
2023-04-26T21:31:16.604Z,5.80
2023-04-26T21:33:43.269Z,5.80
2023-04-26T21:36:10.034Z,5.80
2023-04-26T21:38:36.593Z,6.00
2023-04-26T21:41:03.144Z,6.00
2023-04-26T21:43:29.738Z,6.10
2023-04-26T21:45:57.932Z,6.10
2023-04-26T21:48:26.027Z,6.00
2023-04-26T21:50:52.677Z,6.00
2023-04-26T21:53:19.271Z,6.10
2023-04-26T21:55:52.888Z,6.20
2023-04-26T21:58:20.166Z,6.30
2023-04-26T22:00:46.785Z,6.30
2023-04-26T22:03:13.874Z,6.30
2023-04-26T22:05:41.001Z,6.30
2023-04-26T22:08:07.680Z,6.30
2023-04-26T22:10:34.953Z,6.20
2023-04-26T22:13:01.686Z,6.10
2023-04-26T22:15:28.736Z,6.10
2023-04-26T22:17:55.511Z,5.90
2023-04-26T22:20:22.442Z,5.90
2023-04-26T22:22:49.088Z,5.90
2023-04-26T22:25:15.802Z,5.90
2023-04-26T22:27:42.445Z,5.90
2023-04-26T22:30:22.807Z,6.00
2023-04-26T22:32:53.912Z,6.00
2023-04-26T22:35:20.820Z,6.00
2023-04-26T22:37:47.951Z,6.00
2023-04-26T22:40:15.153Z,6.10
2023-04-26T22:42:42.420Z,6.10
2023-04-26T22:45:10.671Z,6.10
2023-04-26T22:47:37.405Z,6.10
2023-04-26T22:50:05.125Z,6.00
2023-04-26T22:52:32.419Z,5.90
2023-04-26T22:54:59.964Z,5.90
2023-04-26T22:57:26.963Z,6.00
2023-04-26T22:59:53.605Z,6.00
2023-04-26T23:02:20.893Z,6.10
2023-04-26T23:04:47.657Z,6.10
2023-04-26T23:07:14.306Z,6.10
2023-04-26T23:09:41.081Z,6.00
2023-04-26T23:12:07.826Z,5.90
2023-04-26T23:14:34.941Z,5.80
2023-04-26T23:17:02.697Z,5.70
2023-04-26T23:19:29.442Z,5.70
2023-04-26T23:21:56.286Z,5.60
2023-04-26T23:24:22.927Z,5.50
2023-04-26T23:26:49.533Z,5.50
2023-04-26T23:29:16.104Z,5.40
2023-04-26T23:31:42.997Z,5.40
2023-04-26T23:34:10.637Z,5.30
2023-04-26T23:36:37.218Z,5.30
2023-04-26T23:39:03.936Z,5.20
2023-04-26T23:41:30.934Z,5.30
2023-04-26T23:43:57.527Z,5.10
2023-04-26T23:46:24.252Z,5.20
2023-04-26T23:48:51.034Z,5.20
2023-04-26T23:51:17.594Z,5.20
2023-04-26T23:53:44.742Z,5.20
2023-04-26T23:56:11.431Z,5.20
2023-04-26T23:58:38.026Z,5.20
